createdAt,value
2022-12-12T00:01:26.701Z,-0.31
2022-12-12T00:03:54.102Z,-0.27
2022-12-12T00:06:22.211Z,-0.17
2022-12-12T00:08:49.301Z,-0.30
2022-12-12T00:11:15.898Z,-0.07
2022-12-12T00:13:42.855Z,-0.26
2022-12-12T00:16:09.706Z,-0.16
2022-12-12T00:18:39.147Z,-0.14
2022-12-12T00:21:11.358Z,-0.08
2022-12-12T00:23:40.531Z,-0.06
2022-12-12T00:26:11.911Z,-0.25
2022-12-12T00:28:38.446Z,-0.04
2022-12-12T00:31:05.194Z,-0.06
2022-12-12T00:33:31.946Z,-0.27
2022-12-12T00:35:58.563Z,-0.11
2022-12-12T00:38:25.354Z,-0.16
2022-12-12T00:40:56.594Z,-0.14
2022-12-12T00:43:23.630Z,-0.13
2022-12-12T00:45:50.290Z,-0.24
2022-12-12T00:48:17.147Z,-0.29
2022-12-12T00:50:43.985Z,-0.36
2022-12-12T00:53:11.141Z,-0.30
2022-12-12T00:55:37.614Z,-0.36
2022-12-12T00:58:04.157Z,-0.25
2022-12-12T01:00:31.450Z,-0.13
2022-12-12T01:02:58.561Z,-0.06
2022-12-12T01:05:26.405Z,0.07
2022-12-12T01:07:53.082Z,0.06
2022-12-12T01:10:19.873Z,0.08
2022-12-12T01:12:46.487Z,0.02
2022-12-12T01:15:13.199Z,0.10
2022-12-12T01:17:41.553Z,0.11
2022-12-12T01:20:20.812Z,0.03
2022-12-12T01:22:48.421Z,0.18
2022-12-12T01:25:16.574Z,0.10
2022-12-12T01:27:43.671Z,-0.02
2022-12-12T01:30:14.440Z,0.01
2022-12-12T01:32:41.079Z,0.06
2022-12-12T01:35:08.414Z,0.07
2022-12-12T01:37:35.892Z,0.04
2022-12-12T01:40:04.125Z,0.17
2022-12-12T01:42:30.653Z,0.16
2022-12-12T01:44:57.342Z,0.15
2022-12-12T01:47:25.430Z,0.06
2022-12-12T01:50:04.507Z,-0.14
2022-12-12T01:52:39.199Z,0.07
2022-12-12T01:55:07.664Z,0.12
2022-12-12T01:57:37.902Z,0.00
2022-12-12T02:00:08.519Z,-0.05
2022-12-12T02:02:35.273Z,0.18
2022-12-12T02:05:09.183Z,0.07
2022-12-12T02:07:35.789Z,-0.03
2022-12-12T02:10:02.540Z,-0.08
2022-12-12T02:12:29.030Z,-0.10
2022-12-12T02:14:55.685Z,-0.13
2022-12-12T02:17:24.866Z,-0.05
2022-12-12T02:20:10.051Z,-0.12
2022-12-12T02:23:06.983Z,0.18
2022-12-12T02:26:17.874Z,0.23
2022-12-12T02:29:04.601Z,0.21
2022-12-12T02:31:44.566Z,0.08
2022-12-12T02:34:33.625Z,0.15
2022-12-12T02:37:07.702Z,0.07
2022-12-12T02:39:45.644Z,0.03
2022-12-12T02:42:31.010Z,-0.05
2022-12-12T02:45:12.407Z,-0.09
2022-12-12T02:47:48.343Z,-0.15
2022-12-12T02:50:21.355Z,-0.20
2022-12-12T02:52:48.698Z,-0.30
2022-12-12T02:55:15.983Z,-0.30
2022-12-12T02:57:42.982Z,-0.45
2022-12-12T03:00:20.081Z,-0.34
2022-12-12T03:03:26.449Z,-0.26
2022-12-12T03:06:39.314Z,-0.30
2022-12-12T03:09:23.882Z,-0.08
2022-12-12T03:12:07.143Z,-0.17
2022-12-12T03:15:15.952Z,-0.22
2022-12-12T03:18:02.802Z,-0.28
2022-12-12T03:20:38.436Z,-0.33
2022-12-12T03:23:09.411Z,-0.45
2022-12-12T03:25:54.352Z,-0.41
2022-12-12T03:28:25.791Z,-0.52
2022-12-12T03:30:56.004Z,-0.40
2022-12-12T03:33:33.602Z,-0.44
2022-12-12T03:36:10.561Z,-0.58
2022-12-12T03:38:42.855Z,-0.34
2022-12-12T03:41:15.718Z,-0.36
2022-12-12T03:43:52.232Z,-0.34
2022-12-12T03:46:39.914Z,-0.50
2022-12-12T03:49:18.147Z,-0.23
2022-12-12T03:51:51.971Z,-0.24
2022-12-12T03:54:23.783Z,-0.10
2022-12-12T03:56:56.624Z,-0.12
2022-12-12T03:59:36.107Z,-0.19
2022-12-12T04:02:24.029Z,-0.19
2022-12-12T04:05:18.203Z,-0.26
2022-12-12T04:07:50.121Z,-0.32
2022-12-12T04:10:35.044Z,-0.25
2022-12-12T04:13:39.759Z,-0.28
2022-12-12T04:16:12.799Z,-0.25
2022-12-12T04:18:52.584Z,-0.21
2022-12-12T04:22:04.156Z,-0.16
2022-12-12T04:24:44.264Z,-0.12
2022-12-12T04:27:25.753Z,-0.27
2022-12-12T04:30:05.890Z,-0.13
2022-12-12T04:32:50.696Z,-0.13
2022-12-12T04:35:23.095Z,-0.15
2022-12-12T04:37:54.118Z,-0.17
2022-12-12T04:40:33.812Z,-0.16
2022-12-12T04:43:08.992Z,-0.18
2022-12-12T04:45:40.877Z,-0.23
2022-12-12T04:48:12.646Z,-0.27
2022-12-12T04:50:39.714Z,-0.31
2022-12-12T04:53:18.379Z,-0.28
2022-12-12T04:55:49.188Z,-0.30
2022-12-12T04:58:15.876Z,-0.22
2022-12-12T05:00:52.456Z,-0.23
2022-12-12T05:03:35.134Z,-0.26
2022-12-12T05:06:07.827Z,-0.31
2022-12-12T05:08:44.053Z,-0.28
2022-12-12T05:11:12.044Z,-0.27
2022-12-12T05:13:42.514Z,-0.46
2022-12-12T05:16:18.882Z,-0.43
2022-12-12T05:18:45.552Z,-0.46
2022-12-12T05:21:13.126Z,-0.38
2022-12-12T05:23:40.007Z,-0.40
2022-12-12T05:26:08.548Z,-0.26
2022-12-12T05:28:37.348Z,-0.25
2022-12-12T05:31:03.957Z,-0.20
2022-12-12T05:33:30.886Z,-0.20
2022-12-12T05:35:57.360Z,-0.23
2022-12-12T05:38:23.850Z,-0.21
2022-12-12T05:40:50.728Z,-0.18
2022-12-12T05:43:17.198Z,-0.13
2022-12-12T05:45:43.744Z,-0.13
2022-12-12T05:48:10.305Z,-0.16
2022-12-12T05:50:36.872Z,-0.18
2022-12-12T05:53:03.519Z,-0.45
2022-12-12T05:55:30.082Z,-0.30
2022-12-12T05:57:56.571Z,-0.31
2022-12-12T06:00:23.409Z,-0.46
2022-12-12T06:02:49.923Z,-0.29
2022-12-12T06:05:16.643Z,-0.26
2022-12-12T06:07:43.142Z,-0.26
2022-12-12T06:10:09.978Z,-0.27
2022-12-12T06:12:36.639Z,-0.37
2022-12-12T06:15:03.412Z,-0.26
2022-12-12T06:17:33.310Z,-0.26
2022-12-12T06:20:00.554Z,-0.31
2022-12-12T06:22:27.497Z,-0.30
2022-12-12T06:24:54.106Z,-0.32
2022-12-12T06:27:20.596Z,-0.34
2022-12-12T06:29:47.119Z,-0.50
2022-12-12T06:32:13.770Z,-0.32
2022-12-12T06:34:40.419Z,-0.48
2022-12-12T06:37:09.820Z,-0.31
2022-12-12T06:39:40.811Z,-0.31
2022-12-12T06:42:07.453Z,-0.34
2022-12-12T06:44:33.957Z,-0.34
2022-12-12T06:47:00.625Z,-0.33
2022-12-12T06:49:28.606Z,-0.46
2022-12-12T06:51:55.111Z,-0.33
2022-12-12T06:54:21.876Z,-0.31
2022-12-12T06:56:48.889Z,-0.25
2022-12-12T06:59:16.644Z,-0.23
2022-12-12T07:01:43.467Z,-0.23
2022-12-12T07:04:11.988Z,-0.31
2022-12-12T07:06:38.505Z,-0.27
2022-12-12T07:09:05.600Z,-0.34
2022-12-12T07:11:32.560Z,-0.25
2022-12-12T07:14:00.106Z,-0.25
2022-12-12T07:16:26.850Z,-0.43
2022-12-12T07:18:53.446Z,-0.22
2022-12-12T07:21:21.054Z,-0.22
2022-12-12T07:23:48.263Z,-0.22
2022-12-12T07:26:23.048Z,-0.25
2022-12-12T07:28:50.499Z,-0.38
2022-12-12T07:31:19.721Z,-0.22
2022-12-12T07:33:46.468Z,-0.22
2022-12-12T07:36:14.417Z,-0.22
2022-12-12T07:38:41.230Z,-0.23
2022-12-12T07:41:10.554Z,-0.22
2022-12-12T07:43:41.531Z,-0.24
2022-12-12T07:46:13.234Z,-0.25
2022-12-12T07:48:39.857Z,-0.26
2022-12-12T07:51:06.499Z,-0.49
2022-12-12T07:53:33.346Z,-0.26
2022-12-12T07:55:59.941Z,-0.28
2022-12-12T07:58:27.060Z,-0.34
2022-12-12T08:00:55.792Z,-0.12
2022-12-12T08:03:22.484Z,-0.13
2022-12-12T08:05:49.221Z,-0.15
2022-12-12T08:08:15.716Z,-0.09
2022-12-12T08:10:42.446Z,-0.06
2022-12-12T08:13:08.898Z,-0.04
2022-12-12T08:15:35.408Z,-0.05
2022-12-12T08:18:02.017Z,0.03
2022-12-12T08:20:28.531Z,0.02
2022-12-12T08:22:55.041Z,0.05
2022-12-12T08:25:22.011Z,0.05
2022-12-12T08:27:48.525Z,-0.09
2022-12-12T08:30:15.101Z,0.11
2022-12-12T08:32:41.595Z,0.12
2022-12-12T08:35:08.730Z,0.09
2022-12-12T08:37:35.218Z,-0.14
2022-12-12T08:40:01.942Z,-0.01
2022-12-12T08:42:28.500Z,-0.02
2022-12-12T08:44:55.106Z,-0.09
2022-12-12T08:47:21.739Z,-0.07
2022-12-12T08:49:48.295Z,-0.07
2022-12-12T08:52:14.801Z,-0.27
2022-12-12T08:54:41.306Z,-0.26
2022-12-12T08:57:07.940Z,-0.22
2022-12-12T08:59:34.432Z,-0.09
2022-12-12T09:02:01.606Z,0.13
2022-12-12T09:04:28.274Z,0.01
2022-12-12T09:06:55.159Z,0.15
2022-12-12T09:09:21.730Z,0.12
2022-12-12T09:11:48.230Z,0.09
2022-12-12T09:14:14.686Z,0.09
2022-12-12T09:16:41.355Z,0.04
2022-12-12T09:19:07.938Z,-0.01
2022-12-12T09:21:34.871Z,-0.05
2022-12-12T09:24:02.151Z,-0.02
2022-12-12T09:26:28.752Z,-0.04
2022-12-12T09:28:55.343Z,-0.11
2022-12-12T09:31:21.967Z,-0.05
2022-12-12T09:33:48.923Z,-0.15
2022-12-12T09:36:15.700Z,-0.08
2022-12-12T09:38:42.790Z,-0.06
2022-12-12T09:41:09.165Z,-0.03
2022-12-12T09:44:07.813Z,-0.04
2022-12-12T09:46:42.275Z,-0.03
2022-12-12T09:49:22.594Z,0.01
2022-12-12T09:51:51.417Z,0.06
2022-12-12T09:54:21.271Z,0.05
2022-12-12T09:57:10.323Z,0.07
2022-12-12T10:00:02.116Z,0.12
2022-12-12T10:02:53.603Z,-0.04
2022-12-12T10:05:46.438Z,0.20
2022-12-12T10:08:31.908Z,0.30
2022-12-12T10:11:07.019Z,0.29
2022-12-12T10:13:35.830Z,0.47
2022-12-12T10:16:09.559Z,0.49
2022-12-12T10:18:41.983Z,0.55
2022-12-12T10:21:17.592Z,0.54
2022-12-12T10:23:47.582Z,0.64
2022-12-12T10:26:21.984Z,0.67
2022-12-12T10:28:55.952Z,0.52
2022-12-12T10:31:43.841Z,0.72
2022-12-12T10:34:47.750Z,0.54
2022-12-12T10:37:34.894Z,0.77
2022-12-12T10:40:14.833Z,0.78
2022-12-12T10:42:53.208Z,0.78
2022-12-12T10:45:48.263Z,0.80
2022-12-12T10:48:14.865Z,0.70
2022-12-12T10:51:12.597Z,0.70
2022-12-12T10:53:42.074Z,0.68
2022-12-12T10:56:24.795Z,0.68
2022-12-12T10:58:57.373Z,0.59
2022-12-12T11:02:08.526Z,0.80
2022-12-12T11:04:25.013Z,0.77
2022-12-12T11:06:53.699Z,0.70
2022-12-12T11:09:28.320Z,0.65
2022-12-12T11:12:00.720Z,0.63
2022-12-12T11:14:34.964Z,0.55
2022-12-12T11:17:01.666Z,0.50
2022-12-12T11:19:37.628Z,0.48
2022-12-12T11:22:04.934Z,0.42
2022-12-12T11:24:33.365Z,0.38
2022-12-12T11:27:05.352Z,0.35
2022-12-12T11:29:40.927Z,0.37
2022-12-12T11:32:17.605Z,0.22
2022-12-12T11:34:49.516Z,0.46
2022-12-12T11:37:26.780Z,0.26
2022-12-12T11:39:56.412Z,0.35
2022-12-12T11:42:31.243Z,0.31
2022-12-12T11:45:08.525Z,0.13
2022-12-12T11:47:41.465Z,0.26
2022-12-12T11:50:20.895Z,0.29
2022-12-12T11:52:48.750Z,0.19
2022-12-12T11:55:31.644Z,0.42
2022-12-12T11:58:11.727Z,0.28
2022-12-12T12:00:57.505Z,0.47
2022-12-12T12:03:57.561Z,0.47
2022-12-12T12:06:36.367Z,0.25
2022-12-12T12:09:15.503Z,0.34
2022-12-12T12:11:41.925Z,0.33
2022-12-12T12:14:37.848Z,0.32
2022-12-12T12:17:23.243Z,0.35
2022-12-12T12:20:11.517Z,0.32
2022-12-12T12:22:54.588Z,0.31
2022-12-12T12:25:34.769Z,0.27
2022-12-12T12:28:14.320Z,0.25
2022-12-12T12:30:55.544Z,0.25
2022-12-12T12:33:25.033Z,0.25
2022-12-12T12:36:08.318Z,0.21
2022-12-12T12:38:49.980Z,0.25
2022-12-12T12:41:55.364Z,0.28
2022-12-12T12:44:25.865Z,0.32
2022-12-12T12:47:14.621Z,0.23
2022-12-12T12:49:45.280Z,0.32
2022-12-12T12:52:16.489Z,0.32
2022-12-12T12:54:47.290Z,0.09
2022-12-12T12:57:24.341Z,0.31
2022-12-12T12:59:55.349Z,0.28
2022-12-12T13:02:33.545Z,0.18
2022-12-12T13:05:10.198Z,0.12
2022-12-12T13:07:46.228Z,0.16
2022-12-12T13:10:19.763Z,0.12
2022-12-12T13:13:07.387Z,0.12
2022-12-12T13:15:40.338Z,0.35
2022-12-12T13:18:15.088Z,0.34
2022-12-12T13:20:45.755Z,0.32
2022-12-12T13:23:17.974Z,0.42
2022-12-12T13:26:23.014Z,0.39
2022-12-12T13:29:18.177Z,0.33
2022-12-12T13:32:03.435Z,0.37
2022-12-12T13:34:32.471Z,0.32
2022-12-12T13:36:59.953Z,0.32
2022-12-12T13:39:38.202Z,0.19
2022-12-12T13:42:07.265Z,0.38
2022-12-12T13:44:38.177Z,0.27
2022-12-12T13:47:30.950Z,0.45
2022-12-12T13:50:10.094Z,0.50
2022-12-12T13:52:42.943Z,0.54
2022-12-12T13:55:12.738Z,0.42
2022-12-12T13:57:57.724Z,0.58
2022-12-12T14:00:26.202Z,0.58
2022-12-12T14:03:02.103Z,0.62
2022-12-12T14:05:34.090Z,0.59
2022-12-12T14:08:05.904Z,0.60
2022-12-12T14:10:36.365Z,0.57
2022-12-12T14:13:26.244Z,0.38
2022-12-12T14:15:55.733Z,0.53
2022-12-12T14:18:30.055Z,0.54
2022-12-12T14:21:06.753Z,0.48
2022-12-12T14:23:42.080Z,0.40
2022-12-12T14:26:28.912Z,0.35
2022-12-12T14:29:17.675Z,0.32
2022-12-12T14:31:56.310Z,0.30
2022-12-12T14:34:42.485Z,0.29
2022-12-12T14:37:26.843Z,0.21
2022-12-12T14:40:02.483Z,0.21
2022-12-12T14:43:15.247Z,0.19
2022-12-12T14:45:51.582Z,0.14
2022-12-12T14:48:21.202Z,0.00
2022-12-12T14:51:11.899Z,0.15
2022-12-12T14:53:38.413Z,0.11
2022-12-12T14:56:29.604Z,0.06
2022-12-12T14:59:04.977Z,0.04
2022-12-12T15:01:39.816Z,0.06
2022-12-12T15:04:09.986Z,-0.12
2022-12-12T15:06:50.962Z,0.01
2022-12-12T15:09:19.630Z,-0.01
2022-12-12T15:11:48.235Z,-0.12
2022-12-12T15:14:18.718Z,-0.11
2022-12-12T15:16:48.667Z,-0.14
2022-12-12T15:19:25.903Z,-0.16
2022-12-12T15:21:52.723Z,-0.18
2022-12-12T15:24:36.700Z,-0.32
2022-12-12T15:27:05.082Z,-0.28
2022-12-12T15:29:32.762Z,-0.28
2022-12-12T15:32:14.594Z,-0.34
2022-12-12T15:34:42.871Z,-0.40
2022-12-12T15:37:27.271Z,-0.44
2022-12-12T15:40:18.080Z,-0.41
2022-12-12T15:42:50.276Z,-0.41
2022-12-12T15:45:24.323Z,-0.43
2022-12-12T15:47:52.439Z,-0.48
2022-12-12T15:50:22.903Z,-0.45
2022-12-12T15:53:21.909Z,-0.45
2022-12-12T15:56:13.703Z,-0.41
2022-12-12T15:58:42.012Z,-0.45
2022-12-12T16:01:20.692Z,-0.43
2022-12-12T16:04:09.763Z,-0.47
2022-12-12T16:06:42.051Z,-0.49
2022-12-12T16:09:11.339Z,-0.51
2022-12-12T16:11:40.200Z,-0.69
2022-12-12T16:14:24.987Z,-0.54
2022-12-12T16:16:59.865Z,-0.58
2022-12-12T16:19:54.144Z,-0.60
2022-12-12T16:22:26.617Z,-0.63
2022-12-12T16:24:56.634Z,-0.82
2022-12-12T16:27:23.091Z,-0.74
2022-12-12T16:29:49.592Z,-0.87
2022-12-12T16:32:19.115Z,-0.98
2022-12-12T16:34:45.742Z,-0.88
2022-12-12T16:37:18.209Z,-0.85
2022-12-12T16:39:45.314Z,-0.81
2022-12-12T16:42:18.143Z,-0.83
2022-12-12T16:44:45.315Z,-0.87
2022-12-12T16:47:32.093Z,-0.86
2022-12-12T16:49:58.626Z,-0.90
2022-12-12T16:52:25.072Z,-0.93
2022-12-12T16:54:53.927Z,-0.95
2022-12-12T16:57:23.080Z,-1.02
2022-12-12T16:59:49.544Z,-0.86
2022-12-12T17:02:17.992Z,-0.86
2022-12-12T17:04:44.733Z,-0.95
2022-12-12T17:07:11.386Z,-0.98
2022-12-12T17:09:37.836Z,-1.14
2022-12-12T17:12:04.611Z,-0.97
2022-12-12T17:14:31.127Z,-1.11
2022-12-12T17:16:57.766Z,-0.98
2022-12-12T17:19:26.459Z,-1.17
2022-12-12T17:21:53.533Z,-1.19
2022-12-12T17:24:20.622Z,-1.41
2022-12-12T17:26:47.199Z,-1.19
2022-12-12T17:29:13.706Z,-1.29
2022-12-12T17:31:40.542Z,-1.29
2022-12-12T17:34:07.212Z,-1.31
2022-12-12T17:36:33.955Z,-1.38
2022-12-12T17:39:00.508Z,-1.39
2022-12-12T17:41:27.104Z,-1.39
2022-12-12T17:43:57.421Z,-1.43
2022-12-12T17:46:25.193Z,-1.48
2022-12-12T17:48:53.054Z,-1.55
2022-12-12T17:51:23.947Z,-1.73
2022-12-12T17:53:52.366Z,-1.73
2022-12-12T17:56:22.384Z,-1.78
2022-12-12T17:58:49.610Z,-1.69
2022-12-12T18:01:19.253Z,-1.68
2022-12-12T18:03:46.378Z,-1.70
2022-12-12T18:06:14.440Z,-1.71
2022-12-12T18:08:41.594Z,-1.73
2022-12-12T18:11:10.394Z,-1.86
2022-12-12T18:13:38.724Z,-1.79
2022-12-12T18:16:07.114Z,-1.87
2022-12-12T18:18:34.262Z,-1.88
2022-12-12T18:21:10.558Z,-1.92
2022-12-12T18:23:39.593Z,-1.97
2022-12-12T18:26:21.629Z,-2.04
2022-12-12T18:28:59.413Z,-2.07
2022-12-12T18:31:26.385Z,-2.13
2022-12-12T18:33:53.631Z,-2.16
2022-12-12T18:36:22.895Z,-2.29
2022-12-12T18:38:49.853Z,-2.27
2022-12-12T18:41:17.407Z,-2.25
2022-12-12T18:43:44.355Z,-2.28
2022-12-12T18:46:17.569Z,-2.35
2022-12-12T18:48:47.161Z,-2.30
2022-12-12T18:51:20.342Z,-2.34
2022-12-12T18:53:47.131Z,-2.36
2022-12-12T18:56:16.411Z,-2.39
2022-12-12T18:58:43.739Z,-2.44
2022-12-12T19:01:16.900Z,-2.49
2022-12-12T19:03:45.373Z,-2.69
2022-12-12T19:06:18.035Z,-2.53
2022-12-12T19:08:44.770Z,-2.50
2022-12-12T19:11:11.875Z,-2.49
2022-12-12T19:13:39.200Z,-2.53
2022-12-12T19:16:10.557Z,-2.59
2022-12-12T19:18:37.763Z,-2.67
2022-12-12T19:21:10.347Z,-2.73
2022-12-12T19:23:37.270Z,-2.88
2022-12-12T19:26:10.289Z,-2.81
2022-12-12T19:28:37.557Z,-2.87
2022-12-12T19:31:10.019Z,-2.87
2022-12-12T19:33:36.965Z,-2.91
2022-12-12T19:36:24.813Z,-2.91
2022-12-12T19:38:52.188Z,-3.13
2022-12-12T19:41:21.036Z,-3.08
2022-12-12T19:43:50.610Z,-3.00
2022-12-12T19:46:20.315Z,-3.01
2022-12-12T19:48:47.877Z,-3.20
2022-12-12T19:51:18.189Z,-3.26
2022-12-12T19:53:47.097Z,-3.12
2022-12-12T19:56:22.945Z,-3.27
2022-12-12T19:58:50.436Z,-3.12
2022-12-12T20:01:22.210Z,-3.20
2022-12-12T20:03:50.987Z,-3.17
2022-12-12T20:06:18.531Z,-3.21
2022-12-12T20:08:45.301Z,-3.38
2022-12-12T20:11:14.257Z,-3.47
2022-12-12T20:13:40.857Z,-3.29
2022-12-12T20:16:13.333Z,-3.29
2022-12-12T20:18:41.541Z,-3.28
2022-12-12T20:21:10.186Z,-3.28
2022-12-12T20:23:45.356Z,-3.48
2022-12-12T20:26:18.878Z,-3.37
2022-12-12T20:28:47.046Z,-3.49
2022-12-12T20:31:17.943Z,-3.38
2022-12-12T20:33:45.439Z,-3.35
2022-12-12T20:36:21.228Z,-3.37
2022-12-12T20:38:48.717Z,-3.50
2022-12-12T20:41:21.811Z,-3.39
2022-12-12T20:43:48.944Z,-3.52
2022-12-12T20:46:24.533Z,-3.46
2022-12-12T20:48:51.581Z,-3.39
2022-12-12T20:51:52.816Z,-3.51
2022-12-12T20:54:07.212Z,-3.49
2022-12-12T20:56:34.861Z,-3.45
2022-12-12T20:59:03.298Z,-3.69
2022-12-12T21:01:33.798Z,-3.47
2022-12-12T21:04:02.313Z,-3.44
2022-12-12T21:06:32.040Z,-3.47
2022-12-12T21:09:04.660Z,-3.50
2022-12-12T21:11:32.321Z,-3.48
2022-12-12T21:13:59.217Z,-3.64
2022-12-12T21:16:29.855Z,-3.53
2022-12-12T21:18:58.752Z,-3.53
2022-12-12T21:21:25.859Z,-3.52
2022-12-12T21:23:53.845Z,-3.61
2022-12-12T21:26:28.757Z,-3.56
2022-12-12T21:28:56.264Z,-3.47
2022-12-12T21:31:26.441Z,-3.40
2022-12-12T21:33:53.618Z,-3.37
2022-12-12T21:36:22.505Z,-3.30
2022-12-12T21:38:52.578Z,-3.40
2022-12-12T21:41:20.971Z,-3.35
2022-12-12T21:43:48.368Z,-3.37
2022-12-12T21:46:20.645Z,-3.48
2022-12-12T21:49:08.074Z,-3.49
2022-12-12T21:51:35.132Z,-3.42
2022-12-12T21:54:03.591Z,-3.41
2022-12-12T21:56:30.286Z,-3.42
2022-12-12T21:58:57.472Z,-3.48
2022-12-12T22:01:25.260Z,-3.57
2022-12-12T22:03:51.868Z,-3.65
2022-12-12T22:06:21.371Z,-3.88
2022-12-12T22:08:48.497Z,-3.73
2022-12-12T22:11:40.090Z,-3.92
2022-12-12T22:14:04.526Z,-3.68
2022-12-12T22:16:33.853Z,-3.75
2022-12-12T22:19:05.730Z,-3.76
2022-12-12T22:21:33.034Z,-3.80
2022-12-12T22:23:59.997Z,-4.02
2022-12-12T22:26:30.465Z,-3.85
2022-12-12T22:28:59.719Z,-3.84
2022-12-12T22:31:29.182Z,-3.89
2022-12-12T22:34:03.605Z,-3.89
2022-12-12T22:36:32.835Z,-3.96
2022-12-12T22:39:00.750Z,-4.01
2022-12-12T22:41:29.221Z,-4.02
2022-12-12T22:43:57.966Z,-3.99
2022-12-12T22:46:25.264Z,-3.98
2022-12-12T22:48:53.953Z,-4.13
2022-12-12T22:51:23.671Z,-3.99
2022-12-12T22:53:50.361Z,-4.06
2022-12-12T22:56:17.305Z,-4.04
2022-12-12T22:58:44.152Z,-4.16
2022-12-12T23:01:15.003Z,-4.08
2022-12-12T23:03:42.245Z,-4.24
2022-12-12T23:06:19.021Z,-4.12
2022-12-12T23:08:53.847Z,-4.25
2022-12-12T23:11:22.347Z,-4.28
2022-12-12T23:13:49.050Z,-4.29
2022-12-12T23:16:18.435Z,-4.33
2022-12-12T23:18:46.856Z,-4.32
2022-12-12T23:21:17.273Z,-4.51
2022-12-12T23:23:44.481Z,-4.41
2022-12-12T23:26:13.795Z,-4.42
2022-12-12T23:28:41.115Z,-4.41
2022-12-12T23:31:10.330Z,-4.44
2022-12-12T23:33:37.843Z,-4.40
2022-12-12T23:36:07.825Z,-4.41
2022-12-12T23:38:34.501Z,-4.38
2022-12-12T23:41:06.259Z,-4.52
2022-12-12T23:43:33.080Z,-4.32
2022-12-12T23:46:04.393Z,-4.34
2022-12-12T23:48:32.079Z,-4.53
2022-12-12T23:50:59.106Z,-4.29
2022-12-12T23:53:26.312Z,-4.34
2022-12-12T23:55:52.933Z,-4.49
2022-12-12T23:58:19.579Z,-4.41
